Time;durP1;ratioP1;P1;durP2;ratioP2;P2;SDS_P1;SDS_P2;PMS_P1;PMS_P2;Temp;Humidity;BMP_temperature;BMP_pressure;BME280_temperature;BME280_humidity;BME280_pressure;Samples;Min_cycle;Max_cycle;Signal;HPM_P1;HPM_P2
2021/01/17 00:01:22;;;;;;;8.52;4.15;;;16.30;54.50;;;;;;4990722;28;20041;-74
2021/01/17 00:04:05;;;;;;;8.90;4.72;;;16.30;54.60;;;;;;4992832;28;20085;-75
2021/01/17 00:06:39;;;;;;;5.65;4.07;;;16.30;54.60;;;;;;4981051;28;20027;-75
2021/01/17 00:09:18;;;;;;;8.88;4.95;;;16.30;54.70;;;;;;4992453;28;20693;-75
2021/01/17 00:11:52;;;;;;;7.35;4.35;;;16.30;54.70;;;;;;4989456;28;20313;-75
2021/01/17 00:14:24;;;;;;;7.90;4.25;;;16.30;54.80;;;;;;4994261;28;20112;-75
2021/01/17 00:16:55;;;;;;;8.52;4.85;;;16.30;54.80;;;;;;4982356;28;20057;-75
2021/01/17 00:19:35;;;;;;;8.63;4.35;;;16.30;54.80;;;;;;4988018;28;20042;-75
2021/01/17 00:22:05;;;;;;;7.13;4.32;;;16.30;54.80;;;;;;4985789;28;20403;-74
2021/01/17 00:24:45;;;;;;;7.82;4.72;;;16.30;54.90;;;;;;4986993;28;20022;-74
2021/01/17 00:27:15;;;;;;;6.78;4.35;;;16.30;55.00;;;;;;4988460;28;20023;-74
2021/01/17 00:29:44;;;;;;;7.53;4.60;;;16.30;55.00;;;;;;4974603;28;20368;-75
2021/01/17 00:32:14;;;;;;;4.93;3.88;;;16.30;55.10;;;;;;4974847;28;20034;-74
2021/01/17 00:34:52;;;;;;;6.30;4.15;;;16.30;55.10;;;;;;4970831;28;20050;-74
2021/01/17 00:37:22;;;;;;;8.77;5.00;;;16.30;55.10;;;;;;4970831;28;20101;-74
2021/01/17 00:39:53;;;;;;;6.75;4.28;;;16.30;55.20;;;;;;4965529;28;20217;-75
2021/01/17 00:42:36;;;;;;;7.30;4.10;;;16.20;55.20;;;;;;4974021;28;20395;-74
2021/01/17 00:45:14;;;;;;;11.85;5.60;;;16.30;55.30;;;;;;4971878;28;20049;-74
2021/01/17 00:47:46;;;;;;;6.63;4.20;;;16.30;55.30;;;;;;4948084;28;20050;-74
2021/01/17 00:50:19;;;;;;;8.30;4.13;;;16.20;55.40;;;;;;4972485;28;20035;-74
2021/01/17 00:52:54;;;;;;;6.57;4.18;;;16.20;55.40;;;;;;4968604;28;20026;-74
2021/01/17 00:55:27;;;;;;;6.05;3.60;;;16.20;55.50;;;;;;4967622;28;20034;-75
2021/01/17 00:58:06;;;;;;;5.43;4.15;;;16.20;55.50;;;;;;4969539;28;20301;-74
2021/01/17 01:00:35;;;;;;;7.45;4.20;;;16.20;55.60;;;;;;4969663;28;20034;-75
2021/01/17 01:03:29;;;;;;;5.78;4.28;;;16.20;55.60;;;;;;4972320;28;20444;-74
2021/01/17 01:06:07;;;;;;;6.85;3.92;;;16.20;55.60;;;;;;4965217;28;20018;-74
2021/01/17 01:08:38;;;;;;;8.10;4.60;;;16.20;55.70;;;;;;4981261;28;20030;-75
2021/01/17 01:11:21;;;;;;;6.57;4.35;;;16.20;55.70;;;;;;4972234;28;20034;-75
2021/01/17 01:14:01;;;;;;;5.55;3.83;;;16.10;55.80;;;;;;4963845;28;20034;-75
2021/01/17 01:16:32;;;;;;;6.80;4.03;;;16.10;55.80;;;;;;4969834;28;20171;-74
2021/01/17 01:19:12;;;;;;;6.68;4.15;;;16.10;55.90;;;;;;4965568;28;20460;-74
2021/01/17 01:21:42;;;;;;;6.70;3.78;;;16.10;55.90;;;;;;4970586;28;20118;-75
2021/01/17 01:24:25;;;;;;;7.15;4.20;;;16.10;55.90;;;;;;4950041;28;20019;-74
2021/01/17 01:27:05;;;;;;;5.90;3.90;;;16.10;55.90;;;;;;4947323;28;20405;-74
2021/01/17 01:29:35;;;;;;;6.10;4.07;;;16.10;56.00;;;;;;4954115;28;20097;-74
2021/01/17 01:32:15;;;;;;;6.40;3.92;;;16.10;56.00;;;;;;4968986;28;20035;-74
2021/01/17 01:34:51;;;;;;;6.20;4.25;;;16.10;56.00;;;;;;4970808;28;20055;-74
2021/01/17 01:37:23;;;;;;;6.75;3.95;;;16.20;56.00;;;;;;4962947;28;20118;-74
2021/01/17 01:40:14;;;;;;;7.80;3.88;;;16.10;56.00;;;;;;4972043;28;20023;-74
2021/01/17 01:42:47;;;;;;;8.45;4.32;;;16.20;55.90;;;;;;4968543;28;20396;-74
2021/01/17 01:45:17;;;;;;;5.95;3.75;;;16.20;55.90;;;;;;4960471;28;20102;-74
2021/01/17 01:47:48;;;;;;;5.63;3.67;;;16.20;55.90;;;;;;4969164;28;20090;-74
2021/01/17 01:50:19;;;;;;;6.40;4.45;;;16.20;55.90;;;;;;4964696;28;20027;-75
2021/01/17 01:52:51;;;;;;;7.95;3.72;;;16.30;55.80;;;;;;4965169;28;20062;-75
2021/01/17 01:55:21;;;;;;;7.75;4.75;;;16.30;55.90;;;;;;4962671;28;20024;-75
2021/01/17 01:57:51;;;;;;;5.93;4.22;;;16.30;55.90;;;;;;4968019;28;20172;-74
2021/01/17 02:00:32;;;;;;;5.32;3.85;;;16.20;55.90;;;;;;4965131;28;20547;-74
2021/01/17 02:03:00;;;;;;;5.25;3.85;;;16.30;55.90;;;;;;4966103;28;20035;-74
2021/01/17 02:05:29;;;;;;;4.40;3.40;;;16.30;55.90;;;;;;4961970;28;20033;-74
2021/01/17 02:08:02;;;;;;;7.13;4.18;;;16.30;55.90;;;;;;4968973;28;20126;-75
2021/01/17 02:10:34;;;;;;;5.63;3.47;;;16.30;56.00;;;;;;4967075;28;20026;-74
2021/01/17 02:13:51;;;;;;;6.00;3.92;;;16.30;56.00;;;;;;4968108;28;20027;-74
2021/01/17 02:16:22;;;;;;;4.97;3.55;;;16.30;56.00;;;;;;4922723;28;20495;-74
2021/01/17 02:18:52;;;;;;;6.65;4.07;;;16.30;56.00;;;;;;4970819;28;20066;-74
2021/01/17 02:21:37;;;;;;;5.45;3.80;;;16.30;56.00;;;;;;4960942;28;20030;-75
2021/01/17 02:24:12;;;;;;;6.63;3.78;;;16.30;56.00;;;;;;4956014;28;20121;-74
2021/01/17 02:26:42;;;;;;;6.13;3.80;;;16.30;56.00;;;;;;4947387;28;20018;-74
2021/01/17 02:29:17;;;;;;;4.30;3.35;;;16.30;56.00;;;;;;4968716;28;20039;-75
2021/01/17 02:31:47;;;;;;;6.45;4.00;;;16.30;56.00;;;;;;4970317;28;20058;-74
2021/01/17 02:34:15;;;;;;;6.03;4.35;;;16.30;56.00;;;;;;4954048;28;20038;-74
2021/01/17 02:36:49;;;;;;;7.30;3.77;;;16.30;56.00;;;;;;4968293;28;20046;-75
2021/01/17 02:39:35;;;;;;;6.22;3.55;;;16.30;56.00;;;;;;4963753;28;20054;-74
2021/01/17 02:42:06;;;;;;;6.13;3.90;;;16.30;56.00;;;;;;4947793;28;20019;-74
2021/01/17 02:44:37;;;;;;;4.72;3.40;;;16.30;56.00;;;;;;4964055;28;20033;-74
2021/01/17 02:47:04;;;;;;;6.20;3.83;;;16.30;55.90;;;;;;4952113;28;20062;-75
2021/01/17 02:49:34;;;;;;;5.22;3.70;;;16.40;55.90;;;;;;4953482;28;20085;-74
2021/01/17 02:52:05;;;;;;;5.47;3.45;;;16.30;55.90;;;;;;4947132;28;20045;-74
2021/01/17 02:54:38;;;;;;;7.60;3.80;;;16.30;55.90;;;;;;4965839;28;20031;-74
2021/01/17 02:57:06;;;;;;;5.45;3.28;;;16.30;56.00;;;;;;4967269;28;20034;-74
2021/01/17 02:59:57;;;;;;;5.70;3.58;;;16.40;56.00;;;;;;4965600;28;20322;-74
2021/01/17 03:02:32;;;;;;;4.57;3.30;;;16.30;56.00;;;;;;4962544;28;20070;-75
2021/01/17 03:05:17;;;;;;;5.50;3.65;;;16.30;56.10;;;;;;4969081;28;20054;-74
2021/01/17 03:07:49;;;;;;;5.60;3.78;;;16.30;56.10;;;;;;4961209;28;20023;-74
2021/01/17 03:10:22;;;;;;;4.18;3.30;;;16.30;56.10;;;;;;4952147;28;20031;-74
2021/01/17 03:13:08;;;;;;;7.13;4.03;;;16.30;56.20;;;;;;4951366;28;20019;-74
2021/01/17 03:15:39;;;;;;;5.63;3.42;;;16.30;56.20;;;;;;4971813;28;20026;-74
2021/01/17 03:18:17;;;;;;;5.82;3.80;;;16.30;56.30;;;;;;4951258;28;20042;-74
2021/01/17 03:20:56;;;;;;;5.57;3.85;;;16.30;56.30;;;;;;4969964;28;20462;-74
2021/01/17 03:23:42;;;;;;;3.83;2.95;;;16.30;56.40;;;;;;4965278;28;20472;-74
2021/01/17 03:26:08;;;;;;;5.20;3.47;;;16.30;56.40;;;;;;4951891;28;20369;-74
2021/01/17 03:28:41;;;;;;;5.93;3.78;;;16.30;56.50;;;;;;4961550;28;20374;-75
2021/01/17 03:31:12;;;;;;;6.28;3.33;;;16.30;56.50;;;;;;4974033;28;20031;-74
2021/01/17 03:33:48;;;;;;;4.55;3.05;;;16.20;56.60;;;;;;4968449;28;20055;-74
2021/01/17 03:36:35;;;;;;;3.90;2.63;;;16.20;56.60;;;;;;4939660;28;20034;-74
2021/01/17 03:39:06;;;;;;;5.45;3.55;;;16.20;56.60;;;;;;4964348;28;20023;-74
2021/01/17 03:41:40;;;;;;;4.25;3.20;;;16.20;56.70;;;;;;4950351;28;20035;-74
2021/01/17 03:44:11;;;;;;;4.95;3.45;;;16.20;56.70;;;;;;4958981;28;20122;-74
2021/01/17 03:46:42;;;;;;;4.40;3.30;;;16.20;56.70;;;;;;4952806;28;20031;-74
2021/01/17 03:49:15;;;;;;;5.60;3.47;;;16.10;56.80;;;;;;4965452;28;20047;-75
2021/01/17 03:51:53;;;;;;;6.80;3.30;;;16.10;56.80;;;;;;4959927;28;20038;-74
2021/01/17 03:54:19;;;;;;;4.82;3.40;;;16.10;56.80;;;;;;4951624;28;20054;-74
2021/01/17 03:56:59;;;;;;;6.45;3.47;;;16.10;56.80;;;;;;4968353;28;20030;-74
2021/01/17 03:59:38;;;;;;;6.43;3.28;;;16.10;56.90;;;;;;4966650;28;20595;-75
2021/01/17 04:02:10;;;;;;;5.22;3.83;;;16.10;56.90;;;;;;4968914;28;20540;-73
2021/01/17 04:04:44;;;;;;;5.90;3.28;;;16.10;57.00;;;;;;4949516;28;20035;-75
2021/01/17 04:07:14;;;;;;;4.28;3.15;;;16.10;57.00;;;;;;4967341;28;20026;-74
2021/01/17 04:09:52;;;;;;;6.95;3.95;;;16.10;57.00;;;;;;4954079;28;20093;-74
2021/01/17 04:12:22;;;;;;;4.88;3.35;;;16.10;57.00;;;;;;4969199;28;20014;-74
2021/01/17 04:14:52;;;;;;;4.55;3.30;;;16.10;57.00;;;;;;4968995;28;20057;-74
2021/01/17 04:17:24;;;;;;;6.45;3.08;;;16.00;57.00;;;;;;4972666;28;20022;-74
2021/01/17 04:19:54;;;;;;;5.28;3.53;;;16.10;57.10;;;;;;4973712;28;20033;-73
2021/01/17 04:22:23;;;;;;;5.80;3.90;;;16.10;57.10;;;;;;4952292;28;20038;-74
2021/01/17 04:24:48;;;;;;;5.38;3.35;;;16.00;57.10;;;;;;4969196;28;20034;-74
2021/01/17 04:27:18;;;;;;;5.50;3.53;;;16.00;57.20;;;;;;4963631;28;20090;-74
2021/01/17 04:29:49;;;;;;;6.28;3.40;;;16.00;57.20;;;;;;4969878;28;20129;-74
2021/01/17 04:32:19;;;;;;;4.07;2.97;;;16.00;57.30;;;;;;4972074;28;20432;-74
2021/01/17 04:34:45;;;;;;;4.63;3.25;;;16.00;57.20;;;;;;4958324;28;20058;-74
2021/01/17 04:37:10;;;;;;;5.40;3.38;;;16.00;57.20;;;;;;4966424;28;20360;-74
2021/01/17 04:39:44;;;;;;;3.90;3.00;;;16.10;57.10;;;;;;4966856;28;20035;-74
2021/01/17 04:42:23;;;;;;;4.40;2.83;;;16.10;57.10;;;;;;4967982;28;20047;-74
2021/01/17 04:44:54;;;;;;;3.92;2.88;;;16.20;57.00;;;;;;4953565;28;20106;-74
2021/01/17 04:47:24;;;;;;;5.32;2.97;;;16.20;56.80;;;;;;4978890;28;20338;-74
2021/01/17 04:49:55;;;;;;;4.85;3.65;;;16.30;56.70;;;;;;4971495;28;20090;-74
2021/01/17 04:52:28;;;;;;;4.78;3.10;;;16.30;56.60;;;;;;4947482;28;20416;-73
2021/01/17 04:55:00;;;;;;;4.47;2.83;;;16.40;56.50;;;;;;4968547;28;20035;-74
2021/01/17 04:57:47;;;;;;;5.63;3.25;;;16.40;56.40;;;;;;4968905;28;20062;-74
2021/01/17 05:00:30;;;;;;;4.75;3.30;;;16.50;56.20;;;;;;4964674;28;20074;-74
2021/01/17 05:03:40;;;;;;;5.50;3.08;;;16.50;56.10;;;;;;4967212;28;20035;-73
2021/01/17 05:06:32;;;;;;;4.50;2.88;;;16.60;56.00;;;;;;4970638;28;20113;-74
2021/01/17 05:09:06;;;;;;;3.90;2.88;;;16.70;56.00;;;;;;4965901;28;20038;-74
2021/01/17 05:11:40;;;;;;;5.03;3.38;;;16.70;55.90;;;;;;4970847;28;20453;-74
2021/01/17 05:14:10;;;;;;;4.55;2.90;;;16.70;55.90;;;;;;4969685;28;20038;-74
2021/01/17 05:16:42;;;;;;;4.32;2.85;;;16.70;55.90;;;;;;4969424;28;20058;-74
2021/01/17 05:19:14;;;;;;;5.07;3.50;;;16.70;55.90;;;;;;4973117;28;20038;-74
2021/01/17 05:21:49;;;;;;;4.75;3.30;;;16.70;55.90;;;;;;4966038;28;20066;-74
2021/01/17 05:24:20;;;;;;;4.32;3.13;;;16.70;56.00;;;;;;4968613;28;20030;-74
2021/01/17 05:27:01;;;;;;;5.55;3.58;;;16.70;56.00;;;;;;4956128;28;20345;-74
2021/01/17 05:29:30;;;;;;;5.55;3.35;;;16.70;56.10;;;;;;4954003;28;20034;-74
2021/01/17 05:32:15;;;;;;;;;;;;;;;;;;;;;
2021/01/17 05:34:44;;;;;;;2.85;2.47;;;16.60;56.20;;;;;;4983378;28;20385;-74
2021/01/17 05:37:24;;;;;;;3.45;2.60;;;16.60;56.20;;;;;;4987668;28;20041;-74
2021/01/17 05:40:15;;;;;;;4.47;3.00;;;16.60;56.30;;;;;;4984397;28;20034;-74
2021/01/17 05:42:43;;;;;;;3.40;2.72;;;16.50;56.40;;;;;;4984483;28;20027;-74
2021/01/17 05:45:15;;;;;;;5.28;3.10;;;16.50;56.50;;;;;;4987140;28;20038;-74
2021/01/17 05:47:51;;;;;;;5.22;2.78;;;16.50;56.50;;;;;;4987820;28;20041;-75
2021/01/17 05:50:22;;;;;;;4.53;3.10;;;16.50;56.60;;;;;;4989701;28;20447;-74
2021/01/17 05:53:01;;;;;;;3.95;2.55;;;16.50;56.60;;;;;;4993134;28;20468;-74
2021/01/17 05:55:39;;;;;;;5.13;3.08;;;16.50;56.70;;;;;;4968923;28;20488;-74
2021/01/17 05:58:34;;;;;;;5.82;3.28;;;16.40;56.70;;;;;;4986921;28;20463;-74
2021/01/17 06:01:17;;;;;;;5.40;2.80;;;16.40;56.80;;;;;;4963830;28;20057;-74
2021/01/17 06:03:54;;;;;;;3.85;3.42;;;16.30;56.90;;;;;;4986452;28;20048;-74
2021/01/17 06:06:28;;;;;;;3.90;2.90;;;16.30;56.90;;;;;;4981133;28;20841;-74
2021/01/17 06:09:01;;;;;;;3.78;2.60;;;16.30;57.00;;;;;;4984837;28;20030;-74
2021/01/17 06:11:31;;;;;;;4.05;2.83;;;16.30;57.10;;;;;;4984867;28;20030;-75
2021/01/17 06:14:10;;;;;;;4.53;2.92;;;16.30;57.10;;;;;;4983755;28;20031;-74
2021/01/17 06:16:47;;;;;;;4.03;2.70;;;16.30;57.20;;;;;;4981887;28;20101;-74
2021/01/17 06:19:29;;;;;;;3.58;2.75;;;16.30;57.20;;;;;;4990645;28;20034;-75
2021/01/17 06:22:08;;;;;;;4.25;2.80;;;16.30;57.20;;;;;;4990564;28;20080;-74
2021/01/17 06:24:36;;;;;;;3.65;2.58;;;16.30;57.30;;;;;;4983297;28;20355;-74
2021/01/17 06:27:07;;;;;;;4.90;2.97;;;16.20;57.30;;;;;;4988432;28;20105;-74
2021/01/17 06:29:41;;;;;;;4.07;3.13;;;16.20;57.30;;;;;;4982136;28;20030;-75
2021/01/17 06:32:19;;;;;;;4.53;2.80;;;16.20;57.40;;;;;;4986505;28;20041;-74
2021/01/17 06:34:51;;;;;;;3.80;2.92;;;16.20;57.40;;;;;;4983618;28;20047;-74
2021/01/17 06:37:23;;;;;;;3.05;2.63;;;16.20;57.40;;;;;;4988825;28;20030;-74
2021/01/17 06:39:57;;;;;;;4.65;3.13;;;16.20;57.40;;;;;;4988069;28;20018;-74
2021/01/17 06:42:38;;;;;;;3.63;2.60;;;16.20;57.50;;;;;;4970847;28;20019;-74
2021/01/17 06:45:31;;;;;;;3.95;2.80;;;16.20;57.40;;;;;;4987114;28;20518;-73
2021/01/17 06:48:01;;;;;;;4.97;2.70;;;16.20;57.40;;;;;;4988698;28;20443;-74
2021/01/17 06:50:31;;;;;;;5.22;2.78;;;16.20;57.50;;;;;;4984202;28;20037;-74
2021/01/17 06:53:02;;;;;;;3.80;3.00;;;16.20;57.40;;;;;;4984685;28;20033;-74
2021/01/17 06:55:28;;;;;;;5.15;2.92;;;16.20;57.40;;;;;;4986724;28;20061;-74
2021/01/17 06:57:58;;;;;;;3.85;2.90;;;16.20;57.40;;;;;;4977593;28;20041;-74
2021/01/17 07:01:15;;;;;;;;;;;;;;;;;;;;;
2021/01/17 07:03:44;;;;;;;4.03;2.50;;;16.30;57.30;;;;;;4975033;28;20034;-74
2021/01/17 07:06:39;;;;;;;4.10;3.15;;;16.30;57.30;;;;;;4983557;28;20018;-74
2021/01/17 07:09:17;;;;;;;4.13;2.70;;;16.30;57.20;;;;;;4985587;28;20022;-74
2021/01/17 07:12:16;;;;;;;2.97;2.25;;;16.30;57.10;;;;;;4982162;28;20122;-74
2021/01/17 07:15:09;;;;;;;3.95;2.90;;;16.40;57.00;;;;;;4985996;28;20057;-74
2021/01/17 07:17:41;;;;;;;3.72;2.53;;;16.40;56.90;;;;;;4983395;28;20038;-74
2021/01/17 07:20:12;;;;;;;3.65;2.58;;;16.50;56.90;;;;;;4987292;28;20075;-74
2021/01/17 07:22:42;;;;;;;3.42;2.28;;;16.50;56.90;;;;;;4981090;28;20066;-74
2021/01/17 07:25:22;;;;;;;3.08;2.42;;;16.50;56.80;;;;;;4979664;28;20394;-74
2021/01/17 07:28:38;;;;;;;3.58;2.53;;;16.50;56.80;;;;;;4983576;28;20069;-74
2021/01/17 07:31:17;;;;;;;4.55;2.55;;;16.50;56.90;;;;;;4983876;28;20026;-74
2021/01/17 07:34:01;;;;;;;3.80;2.45;;;16.50;56.90;;;;;;4968580;28;20041;-75
2021/01/17 07:36:31;;;;;;;4.05;2.75;;;16.40;56.90;;;;;;4976045;28;20032;-75
2021/01/17 07:39:03;;;;;;;4.32;2.58;;;16.40;56.90;;;;;;4987126;28;20030;-75
2021/01/17 07:41:35;;;;;;;3.85;2.95;;;16.40;56.90;;;;;;4984565;28;20113;-74
2021/01/17 07:44:07;;;;;;;4.38;2.78;;;16.50;56.90;;;;;;4985620;28;20023;-74
2021/01/17 07:46:38;;;;;;;3.40;2.58;;;16.40;57.00;;;;;;4988216;28;20030;-74
2021/01/17 07:49:10;;;;;;;3.63;2.38;;;16.40;57.00;;;;;;4986579;28;20053;-74
2021/01/17 07:51:41;;;;;;;3.65;2.50;;;16.40;57.10;;;;;;4973916;28;20042;-74
2021/01/17 07:54:24;;;;;;;4.93;2.65;;;16.40;57.10;;;;;;4986150;28;20053;-74
2021/01/17 07:57:07;;;;;;;3.72;2.80;;;16.40;57.10;;;;;;4992758;28;20026;-75
2021/01/17 07:59:37;;;;;;;3.42;2.58;;;16.40;57.10;;;;;;4967361;28;20113;-75
2021/01/17 08:02:15;;;;;;;4.82;3.00;;;16.40;57.10;;;;;;4992402;28;20134;-75
2021/01/17 08:04:47;;;;;;;3.22;2.28;;;16.40;57.20;;;;;;4987810;28;20468;-75
2021/01/17 08:07:33;;;;;;;3.83;2.47;;;16.40;57.20;;;;;;4988357;28;20464;-75
2021/01/17 08:10:19;;;;;;;3.88;2.50;;;16.30;57.20;;;;;;4968595;28;20539;-75
2021/01/17 08:12:52;;;;;;;3.95;2.30;;;16.30;57.20;;;;;;4992638;28;20031;-74
2021/01/17 08:15:36;;;;;;;4.38;2.58;;;16.30;57.30;;;;;;4988083;28;20038;-77
2021/01/17 08:18:27;;;;;;;4.10;2.67;;;16.30;57.30;;;;;;4974879;28;20033;-76
2021/01/17 08:21:21;;;;;;;6.13;3.30;;;16.30;57.30;;;;;;4960414;28;20098;-76
2021/01/17 08:24:12;;;;;;;4.68;2.40;;;16.30;57.30;;;;;;4988041;28;20022;-76
2021/01/17 08:27:02;;;;;;;4.10;2.63;;;16.30;57.30;;;;;;4998145;28;20022;-75
2021/01/17 08:29:55;;;;;;;4.07;2.63;;;16.30;57.30;;;;;;4981587;28;20471;-76
2021/01/17 08:32:41;;;;;;;5.07;2.53;;;16.30;57.30;;;;;;4971866;28;20022;-74
2021/01/17 08:35:23;;;;;;;2.97;2.25;;;16.30;57.30;;;;;;4986418;28;20224;-74
2021/01/17 08:37:57;;;;;;;3.53;2.20;;;16.30;57.20;;;;;;4982509;28;20038;-75
2021/01/17 08:40:28;;;;;;;3.42;2.35;;;16.30;57.30;;;;;;4980894;28;20010;-75
2021/01/17 08:42:58;;;;;;;4.38;2.47;;;16.30;57.30;;;;;;4990605;28;20077;-75
2021/01/17 08:45:24;;;;;;;4.43;2.67;;;16.30;57.20;;;;;;4970342;28;20054;-74
2021/01/17 08:47:58;;;;;;;3.28;2.47;;;16.40;57.20;;;;;;4993622;28;20120;-74
2021/01/17 08:50:31;;;;;;;3.58;2.40;;;16.40;57.10;;;;;;4987846;28;20066;-75
2021/01/17 08:53:13;;;;;;;3.83;2.30;;;16.40;57.00;;;;;;4982350;28;20105;-74
2021/01/17 08:55:44;;;;;;;3.60;2.35;;;16.50;56.90;;;;;;4985465;28;20029;-75
2021/01/17 08:58:15;;;;;;;3.78;2.25;;;16.60;56.70;;;;;;4972383;28;20059;-75
2021/01/17 09:00:52;;;;;;;3.65;2.47;;;16.70;56.60;;;;;;4973564;28;20052;-75
2021/01/17 09:03:35;;;;;;;3.78;2.30;;;16.70;56.40;;;;;;4972332;28;20077;-75
2021/01/17 09:06:06;;;;;;;2.67;2.10;;;16.80;56.20;;;;;;4963729;28;20212;-75
2021/01/17 09:08:57;;;;;;;4.22;2.30;;;16.80;56.10;;;;;;4983006;28;20375;-75
2021/01/17 09:11:29;;;;;;;4.32;2.90;;;16.80;56.00;;;;;;4980610;28;20439;-75
2021/01/17 09:14:16;;;;;;;3.25;2.22;;;16.80;56.00;;;;;;4984288;28;20037;-74
2021/01/17 09:16:46;;;;;;;4.03;2.60;;;16.90;56.00;;;;;;4990168;28;20030;-74
2021/01/17 09:19:13;;;;;;;3.47;2.50;;;16.90;56.00;;;;;;4986450;28;20034;-74
2021/01/17 09:21:44;;;;;;;2.95;2.47;;;16.80;56.10;;;;;;4979937;28;20031;-74
2021/01/17 09:24:15;;;;;;;2.83;2.05;;;16.80;56.10;;;;;;4981933;28;20053;-75
2021/01/17 09:26:58;;;;;;;3.47;2.30;;;16.80;56.10;;;;;;4982794;28;20018;-75
2021/01/17 09:29:45;;;;;;;3.17;2.08;;;16.80;56.10;;;;;;4988595;28;20030;-75
2021/01/17 09:32:19;;;;;;;3.53;2.50;;;16.80;56.20;;;;;;4994117;28;20117;-75
2021/01/17 09:34:47;;;;;;;3.28;2.58;;;16.80;56.20;;;;;;4987701;28;20039;-75
2021/01/17 09:37:18;;;;;;;3.28;2.38;;;16.80;56.30;;;;;;4985417;28;20465;-74
2021/01/17 09:39:48;;;;;;;3.67;2.38;;;16.80;56.40;;;;;;4981133;28;21279;-74
2021/01/17 09:42:26;;;;;;;3.72;2.47;;;16.80;56.40;;;;;;4967889;28;20073;-74
2021/01/17 09:44:54;;;;;;;2.92;2.10;;;16.80;56.40;;;;;;4991726;28;20027;-74
2021/01/17 09:47:21;;;;;;;3.45;2.30;;;16.70;56.40;;;;;;4985210;28;20038;-74
2021/01/17 09:49:48;;;;;;;3.35;2.47;;;16.70;56.40;;;;;;4983022;28;20478;-76
2021/01/17 09:52:25;;;;;;;4.32;2.55;;;16.80;56.50;;;;;;4980533;28;20018;-73
2021/01/17 09:54:56;;;;;;;2.78;1.95;;;16.80;56.50;;;;;;4962189;28;20122;-74
2021/01/17 09:57:26;;;;;;;3.90;2.70;;;16.70;56.60;;;;;;4966094;28;20046;-74
2021/01/17 09:59:53;;;;;;;4.03;2.45;;;16.70;56.60;;;;;;4962995;28;20023;-73
2021/01/17 10:02:31;;;;;;;4.85;2.50;;;16.70;56.60;;;;;;4989637;28;20444;-73
2021/01/17 10:05:02;;;;;;;;;;;16.70;56.60;;;;;;4986479;28;20034;-73
2021/01/17 10:07:40;;;;;;;3.45;2.38;;;16.70;56.70;;;;;;4976689;28;19954;-75
2021/01/17 10:10:10;;;;;;;3.80;2.17;;;16.70;56.70;;;;;;4987090;28;20050;-75
2021/01/17 10:12:46;;;;;;;3.00;2.40;;;16.60;56.70;;;;;;4987123;28;20347;-75
2021/01/17 10:15:27;;;;;;;3.88;2.33;;;16.60;56.80;;;;;;4987818;28;20146;-75
2021/01/17 10:17:53;;;;;;;3.55;2.40;;;16.60;56.80;;;;;;4990517;28;20073;-75
2021/01/17 10:20:29;;;;;;;3.97;2.35;;;16.60;56.90;;;;;;4966427;28;20076;-75
2021/01/17 10:23:07;;;;;;;2.83;2.00;;;16.60;56.90;;;;;;4980365;28;20446;-75
2021/01/17 10:25:38;;;;;;;2.92;1.75;;;16.50;57.00;;;;;;4967068;28;20531;-75
2021/01/17 10:28:12;;;;;;;3.05;2.33;;;16.50;57.00;;;;;;4987147;28;20045;-75
2021/01/17 10:30:42;;;;;;;3.65;2.20;;;16.50;57.10;;;;;;4985628;28;20388;-75
2021/01/17 10:33:15;;;;;;;3.35;2.13;;;16.50;57.10;;;;;;4984034;28;20019;-75
2021/01/17 10:35:47;;;;;;;3.03;2.03;;;16.50;57.10;;;;;;4983305;28;20039;-75
2021/01/17 10:38:14;;;;;;;2.75;2.08;;;16.50;57.10;;;;;;4984225;28;20728;-75
2021/01/17 10:40:45;;;;;;;3.58;2.42;;;16.50;57.10;;;;;;4987109;28;20659;-75
2021/01/17 10:43:23;;;;;;;3.72;2.45;;;16.50;57.00;;;;;;4988611;28;20037;-74
2021/01/17 10:46:12;;;;;;;3.00;2.00;;;16.50;57.00;;;;;;4973361;28;20026;-75
2021/01/17 10:48:50;;;;;;;3.15;2.03;;;16.50;57.00;;;;;;4988119;28;20022;-75
2021/01/17 10:51:23;;;;;;;3.95;2.63;;;16.50;57.00;;;;;;4984501;28;20031;-75
2021/01/17 10:53:52;;;;;;;3.28;2.17;;;16.50;57.00;;;;;;4985850;28;20081;-75
2021/01/17 10:56:20;;;;;;;3.30;2.45;;;16.60;56.90;;;;;;4982688;28;20018;-75
2021/01/17 10:58:58;;;;;;;3.33;2.30;;;16.60;56.80;;;;;;4982478;28;20027;-74
2021/01/17 11:01:33;;;;;;;4.25;2.47;;;16.70;56.80;;;;;;4971989;28;20065;-74
2021/01/17 11:04:11;;;;;;;3.83;2.15;;;16.70;56.60;;;;;;4966374;28;20027;-75
2021/01/17 11:06:41;;;;;;;3.90;2.13;;;16.80;56.50;;;;;;4984668;28;20022;-75
2021/01/17 11:09:16;;;;;;;4.22;2.50;;;16.80;56.40;;;;;;4985073;28;20035;-76
2021/01/17 11:11:50;;;;;;;3.75;2.28;;;16.80;56.20;;;;;;4986058;28;20030;-75
2021/01/17 11:14:24;;;;;;;5.43;2.63;;;16.90;56.10;;;;;;4987548;28;20114;-75
2021/01/17 11:16:52;;;;;;;5.05;2.85;;;17.00;55.80;;;;;;4988875;28;20026;-74
2021/01/17 11:19:22;;;;;;;3.85;2.55;;;17.20;55.90;;;;;;4989911;28;20026;-75
2021/01/17 11:21:53;;;;;;;3.75;2.38;;;17.20;55.90;;;;;;4969684;28;20049;-75
2021/01/17 11:24:23;;;;;;;3.90;2.25;;;17.30;55.80;;;;;;4971768;28;20029;-76
2021/01/17 11:26:53;;;;;;;3.15;2.00;;;17.30;56.40;;;;;;4987589;28;20161;-75
2021/01/17 11:29:20;;;;;;;3.88;1.92;;;17.40;57.80;;;;;;4988654;28;20034;-75
2021/01/17 11:31:46;;;;;;;2.97;2.47;;;17.50;59.30;;;;;;4989887;28;20034;-72
2021/01/17 11:34:16;;;;;;;3.78;2.47;;;17.60;60.80;;;;;;4971695;28;20053;-74
2021/01/17 11:36:48;;;;;;;3.10;2.33;;;17.60;62.80;;;;;;4972671;28;20033;-72
2021/01/17 11:39:20;;;;;;;4.97;2.20;;;17.60;65.60;;;;;;4981168;28;20029;-74
2021/01/17 11:41:46;;;;;;;3.13;2.08;;;17.70;67.00;;;;;;4990077;28;20065;-71
2021/01/17 11:44:16;;;;;;;3.42;2.28;;;17.80;68.20;;;;;;4981070;28;20412;-71
2021/01/17 11:46:42;;;;;;;9.80;2.83;;;17.80;69.50;;;;;;4975088;28;20026;-71
2021/01/17 11:49:13;;;;;;;4.32;2.42;;;17.80;71.00;;;;;;4978612;28;20042;-72
2021/01/17 11:51:39;;;;;;;7.82;2.15;;;17.90;72.40;;;;;;4974038;28;20045;-72
2021/01/17 11:54:13;;;;;;;4.70;2.53;;;17.90;73.60;;;;;;4986247;28;20023;-72
2021/01/17 11:56:39;;;;;;;5.53;2.90;;;18.00;74.70;;;;;;4984332;28;20448;-72
2021/01/17 11:59:05;;;;;;;6.60;2.58;;;18.00;75.40;;;;;;4986861;28;20026;-73
2021/01/17 12:01:31;;;;;;;5.45;2.78;;;18.00;76.10;;;;;;4986886;28;20088;-72
2021/01/17 12:04:05;;;;;;;8.65;3.15;;;18.00;77.10;;;;;;4989690;28;20091;-72
2021/01/17 12:06:31;;;;;;;8.68;2.65;;;18.00;78.00;;;;;;4967229;28;20024;-72
2021/01/17 12:09:05;;;;;;;7.55;2.63;;;18.10;79.00;;;;;;4970334;28;20498;-73
2021/01/17 12:11:59;;;;;;;5.50;2.67;;;18.10;78.80;;;;;;4990071;28;20046;-74
2021/01/17 12:14:25;;;;;;;4.50;2.38;;;18.00;76.30;;;;;;4967518;28;20415;-74
2021/01/17 12:16:56;;;;;;;8.02;2.42;;;17.90;71.10;;;;;;4989251;28;20117;-75
2021/01/17 12:19:26;;;;;;;5.40;2.85;;;17.80;68.10;;;;;;4970156;28;20472;-74
2021/01/17 12:21:57;;;;;;;5.05;2.25;;;17.70;66.30;;;;;;4985323;28;20098;-73
2021/01/17 12:24:28;;;;;;;4.30;2.30;;;17.60;64.70;;;;;;4987480;28;20046;-74
2021/01/17 12:26:59;;;;;;;6.85;2.50;;;17.50;63.40;;;;;;4966406;28;20023;-72
2021/01/17 12:29:25;;;;;;;8.35;2.80;;;17.30;62.10;;;;;;4983837;28;20037;-74
2021/01/17 12:31:51;;;;;;;5.13;2.40;;;17.30;62.10;;;;;;4991038;28;20027;-74
2021/01/17 12:34:21;;;;;;;5.47;2.28;;;17.30;61.40;;;;;;4987692;28;20376;-74
2021/01/17 12:36:48;;;;;;;6.15;3.22;;;17.30;60.70;;;;;;4987695;28;20109;-74
2021/01/17 12:39:17;;;;;;;7.63;2.85;;;17.20;59.80;;;;;;4986882;28;20252;-74
2021/01/17 12:41:45;;;;;;;3.65;2.28;;;17.10;59.30;;;;;;4968936;28;20026;-74
2021/01/17 12:44:16;;;;;;;5.45;2.38;;;17.10;58.90;;;;;;4988896;28;20023;-74
2021/01/17 12:46:48;;;;;;;8.93;2.67;;;17.00;58.40;;;;;;4971939;28;20027;-74
2021/01/17 12:49:14;;;;;;;11.70;2.72;;;16.90;58.10;;;;;;4995665;28;20125;-74
2021/01/17 12:51:45;;;;;;;5.47;2.42;;;16.90;57.70;;;;;;4985898;28;20424;-74
2021/01/17 12:54:16;;;;;;;5.07;2.78;;;16.80;57.40;;;;;;4986288;28;20118;-74
2021/01/17 12:56:41;;;;;;;3.67;2.28;;;16.80;57.10;;;;;;4974031;28;20080;-74
2021/01/17 12:59:07;;;;;;;4.63;2.25;;;16.80;56.90;;;;;;4990420;28;20030;-74
2021/01/17 13:01:33;;;;;;;4.25;2.78;;;16.70;56.50;;;;;;4996179;28;20407;-74
2021/01/17 13:03:59;;;;;;;8.40;2.80;;;16.70;56.40;;;;;;4986995;28;20514;-74
2021/01/17 13:06:24;;;;;;;5.70;3.10;;;16.60;56.20;;;;;;4989088;28;20026;-74
2021/01/17 13:08:54;;;;;;;6.45;3.10;;;16.60;56.10;;;;;;4973196;28;20065;-74
2021/01/17 13:11:20;;;;;;;6.15;3.05;;;16.50;56.00;;;;;;4985846;28;20027;-74
2021/01/17 13:13:46;;;;;;;6.28;3.20;;;16.50;55.70;;;;;;4987842;28;20089;-74
2021/01/17 13:16:18;;;;;;;7.40;3.40;;;16.50;55.60;;;;;;4985720;28;20372;-74
2021/01/17 13:18:45;;;;;;;6.47;3.40;;;16.40;55.50;;;;;;4994773;28;20026;-74
2021/01/17 13:21:12;;;;;;;6.85;3.40;;;16.40;55.40;;;;;;4972331;28;20102;-74
2021/01/17 13:23:37;;;;;;;5.82;2.97;;;16.40;55.30;;;;;;4984895;28;20066;-74
2021/01/17 13:26:03;;;;;;;7.25;3.53;;;16.30;55.00;;;;;;4987922;28;20053;-75
2021/01/17 13:28:29;;;;;;;7.78;3.40;;;16.30;55.00;;;;;;4986953;28;20027;-74